CW2073 Weather Reports


Display with metric or nautical units.
time (UTC)temp
F
wind
direction
speed
MPH
gust
MPH
rain 1hr
in
rain 24hr
in
rain mn
in
humidity
%
barometer
mb
20210623001529 60 280 1.0 10.0 0.00 0.57 0.39 87 1009.7
20210623000529 60 256 1.0 5.0 0.00 0.57 0.39 87 1009.6
20210622235529 61 282 2.0 7.0 0.00 0.57 0.39 87 1009.5
20210622234529 61 279 1.0 6.0 0.00 0.57 0.39 88 1009.3
20210622233526 61 257 0.0 3.0 0.00 0.57 0.39 91 1008.9
20210622232529 61 268 0.0 4.0 0.00 0.57 0.39 91 1008.5
20210622231529 61 220 0.0 2.0 0.00 0.57 0.39 91 1008.3
20210622230526 61 187 0.0 3.0 0.00 0.57 0.39 92 1008.1
20210622225528 61 267 1.0 7.0 0.00 0.57 0.39 92 1007.8
20210622224528 61 248 1.0 4.0 0.01 0.57 0.39 93 1007.9
20210622223534 61 67 0.0 2.0 0.04 0.57 0.39 93 1007.5
20210622222528 61 251 1.0 3.0 0.06 0.57 0.39 92 1007.7
20210622221528 62 282 3.0 12.0 0.08 0.57 0.39 90 1007.5
20210622220528 62 282 4.0 8.0 0.10 0.57 0.39 94 1007.7
20210622215528 62 92 1.0 3.0 0.10 0.56 0.38 96 1006.9
20210622214528 62 290 1.0 6.0 0.10 0.56 0.37 96 1007.3
20210622213526 62 321 0.0 3.0 0.08 0.53 0.35 95 1007.2
20210622212529 62 69 1.0 3.0 0.05 0.51 0.33 95 1007.3
20210622211528 62 128 1.0 5.0 0.04 0.49 0.31 95 1006.2
20210622210526 62 72 0.0 2.0 0.02 0.47 0.29 95 1006.9
20210622205526 63 59 1.0 2.0 0.01 0.46 0.28 95 1007.3
20210622204530 63 35 1.0 3.0 0.01 0.46 0.28 92 1007.9
20210622203531 63 253 1.0 3.0 0.03 0.46 0.27 93 1006.9
20210622202526 63 73 1.0 2.0 0.05 0.46 0.27 92 1006.9
20210622201528 63 71 1.0 3.0 0.06 0.46 0.27 92 1006.7
20210622200528 64 41 2.0 4.0 0.05 0.45 0.27 92 1007.1
20210622195530 64 243 1.0 3.0 0.06 0.45 0.27 93 1007.2
20210622194527 63 286 1.0 4.0 0.06 0.45 0.27 94 1006.7
20210622193528 63 271 0.0 3.0 0.05 0.43 0.25 94 1006.6
20210622192528 63 58 1.0 3.0 0.04 0.40 0.22 94 1006.4
20210622191528 63 65 0.0 4.0 0.06 0.40 0.22 94 1006.2
20210622190525 62 1 0.0 3.0 0.10 0.40 0.22 95 1006.1
20210622185529 62 40 0.0 2.0 0.14 0.39 0.21 95 1006.3
20210622184529 62 54 0.0 2.0 0.17 0.39 0.21 95 1006.7
20210622183529 62 0.0 0.0 0.16 0.37 0.19 95 1007.0
20210622182527 62 70 0.0 2.0 0.16 0.36 0.18 95 1007.4
20210622181527 61 263 0.0 5.0 0.14 0.34 0.16 95 1006.7
20210622180528 62 55 0.0 2.0 0.11 0.30 0.12 94 1007.0
20210622175530 62 60 0.0 2.0 0.06 0.26 0.08 93 1006.7
20210622174528 62 16 1.0 4.0 0.02 0.22 0.04 93 1006.5
20210622173528 62 52 1.0 3.0 0.02 0.21 0.03 93 1006.4
20210622172530 62 23 1.0 2.0 0.01 0.20 0.02 91 1006.7
20210622171530 63 63 1.0 3.0 0.00 0.20 0.02 90 1007.1
20210622170528 64 59 1.0 3.0 0.00 0.19 0.01 87 1007.0
20210622165527 65 72 1.0 3.0 0.00 0.19 0.01 84 1006.9
20210622164528 65 47 1.0 5.0 0.00 0.19 0.01 82 1006.9
20210622163529 66 48 1.0 4.0 0.00 0.19 0.01 81 1006.7
20210622162528 66 40 0.0 3.0 0.00 0.19 0.01 80 1006.6
20210622161527 66 347 1.0 3.0 0.00 0.19 0.01 80 1006.5
20210622160528 66 47 1.0 3.0 0.00 0.19 0.01 79 1006.4
20210622155525 67 45 2.0 7.0 0.00 0.19 0.01 80 1006.6
20210622154526 67 22 1.0 3.0 0.00 0.19 0.01 80 1006.7
20210622153526 67 51 1.0 3.0 0.00 0.19 0.01 81 1006.6
20210622152527 67 70 1.0 3.0 0.00 0.19 0.01 82 1006.5
20210622151529 67 58 0.0 2.0 0.01 0.19 0.01 83 1006.5
20210622150526 67 52 0.0 2.0 0.01 0.19 0.01 82 1006.5
20210622145527 67 63 1.0 3.0 0.01 0.19 0.01 82 1006.4
20210622144528 67 61 0.0 3.0 0.01 0.19 0.01 82 1006.2
20210622143527 68 56 0.0 2.0 0.01 0.19 0.01 81 1006.0
20210622142528 68 345 1.0 5.0 0.01 0.19 0.01 78 1005.9
20210622141529 69 57 1.0 3.0 0.00 0.19 0.01 77 1005.8
20210622140528 69 342 1.0 3.0 0.00 0.19 0.01 74 1005.8
20210622135529 70 21 1.0 3.0 0.00 0.18 0.00 73 1005.8
20210622134526 71 39 1.0 11.0 0.00 0.18 0.00 75 1005.6
20210622133527 71 25 1.0 3.0 0.00 0.19 0.00 76 1005.5
20210622132530 72 56 1.0 4.0 0.00 0.19 0.00 78 1005.4
20210622131529 72 65 0.0 2.0 0.00 0.19 0.00 81 1005.3
20210622130526 72 39 0.0 2.0 0.00 0.19 0.00 80 1005.2
20210622125526 73 48 0.0 2.0 0.00 0.19 0.00 82 1004.9
20210622124529 73 64 0.0 2.0 0.00 0.19 0.00 84 1004.8
20210622123527 74 50 0.0 2.0 0.00 0.19 0.00 84 1004.7
20210622122527 74 298 1.0 3.0 0.00 0.19 0.00 85 1004.5
20210622121528 74 308 0.0 3.0 0.00 0.19 0.00 86 1004.5
20210622120527 74 12 0.0 2.0 0.00 0.19 0.00 86 1004.3
20210622115528 74 258 0.0 3.0 0.00 0.19 0.00 86 1004.2
20210622114526 74 285 0.0 3.0 0.00 0.19 0.00 86 1004.3
20210622113527 73 288 2.0 5.0 0.00 0.19 0.00 88 1004.4
20210622112528 72 291 3.0 6.0 0.00 0.19 0.00 88 1004.4
20210622111524 71 286 2.0 4.0 0.00 0.19 0.00 90 1004.3
20210622110527 70 291 1.0 4.0 0.00 0.19 0.00 92 1004.2
20210622105527 69 0.0 0.0 0.00 0.19 0.00 97 1003.9
20210622104529 69 0.0 0.0 0.00 0.19 0.00 97 1004.0
20210622103525 69 0.0 0.0 0.00 0.19 0.00 97 1003.8
20210622102525 69 0.0 0.0 0.00 0.19 0.00 97 1003.8
20210622101529 68 0.0 0.0 0.00 0.19 0.00 97 1003.7
20210622100530 68 0.0 0.0 0.00 0.19 0.00 97 1003.6
20210622095526 68 0.0 0.0 0.00 0.19 0.00 97 1003.6
20210622094526 68 0.0 0.0 0.00 0.19 0.00 97 1003.5
20210622093527 69 0.0 0.0 0.00 0.19 0.00 97 1003.4
20210622092526 69 0.0 0.0 0.00 0.19 0.00 96 1003.1
20210622091529 69 0.0 0.0 0.00 0.19 0.00 96 1003.1
20210622090527 69 0.0 0.0 0.00 0.19 0.00 96 1002.8
20210622085528 69 0.0 0.0 0.00 0.19 0.00 95 1002.5
20210622084531 70 0.0 0.0 0.00 0.19 0.00 94 1002.6
20210622083526 70 0.0 0.0 0.00 0.19 0.00 92 1002.6
20210622082528 70 307 0.0 2.0 0.00 0.19 0.00 92 1002.5
20210622081529 70 271 0.0 2.0 0.00 0.19 0.00 93 1002.5
20210622080529 70 0.0 0.0 0.00 0.19 0.00 93 1002.3
20210622075526 70 0.0 0.0 0.00 0.19 0.00 92 1002.3
20210622074526 71 0.0 0.0 0.00 0.19 0.00 92 1002.2
20210622073531 72 314 0.0 3.0 0.00 0.19 0.00 89 1002.4
20210622072527 72 297 0.0 2.0 0.00 0.19 0.00 88 1002.4
20210622071528 72 294 0.0 2.0 0.00 0.19 0.00 88 1002.5
20210622070529 72 0.0 0.0 0.00 0.19 0.00 86 1002.4
20210622065530 72 251 1.0 3.0 0.00 0.19 0.00 86 1002.4
20210622064530 72 252 1.0 3.0 0.00 0.19 0.00 87 1002.5
20210622063526 72 255 1.0 3.0 0.00 0.19 0.00 86 1002.6
20210622062528 72 266 2.0 5.0 0.00 0.19 0.00 86 1002.5
20210622061528 72 248 1.0 3.0 0.00 0.19 0.00 87 1002.4
20210622060527 72 252 1.0 3.0 0.00 0.19 0.00 86 1002.4
20210622055528 73 248 0.0 2.0 0.00 0.19 0.00 86 1002.4
20210622054528 73 278 0.0 3.0 0.00 0.19 0.00 86 1002.5
20210622053526 73 254 1.0 4.0 0.00 0.19 0.00 86 1002.7
20210622052526 73 250 1.0 3.0 0.00 0.19 0.00 86 1002.5
20210622051527 73 251 1.0 4.0 0.00 0.19 0.00 86 1002.3
20210622050528 73 250 2.0 4.0 0.00 0.19 0.00 86 1002.2
20210622045526 73 263 0.0 3.0 0.00 0.19 0.00 86 1001.9
20210622044526 73 274 0.0 2.0 0.00 0.19 0.00 85 1001.9
20210622043526 74 281 2.0 4.0 0.00 0.19 0.00 85 1002.0
20210622042527 74 272 2.0 7.0 0.00 0.19 0.00 85 1002.1
20210622041527 74 250 2.0 5.0 0.00 0.19 0.00 84 1002.2
20210622040523 74 252 3.0 5.0 0.00 0.19 0.00 85 1002.1
20210622035527 74 251 1.0 4.0 0.00 0.19 0.19 85 1002.2
20210622034527 74 248 2.0 4.0 0.00 0.19 0.19 87 1002.0
20210622033527 74 245 1.0 3.0 0.00 0.19 0.19 88 1001.5
20210622032528 74 306 0.0 4.0 0.02 0.19 0.19 88 1001.3
20210622031528 75 279 1.0 3.0 0.04 0.19 0.19 84 1001.6
20210622030528 75 278 2.0 4.0 0.04 0.19 0.19 84 1001.8
20210622025526 75 253 0.0 3.0 0.13 0.19 0.19 86 1002.0
20210622024526 75 290 0.0 2.0 0.18 0.19 0.19 87 1002.3
20210622023530 75 264 2.0 3.0 0.18 0.18 0.18 88 1002.6
20210622022527 76 282 3.0 7.0 0.16 0.17 0.17 88 1002.7
20210622021527 77 289 1.0 6.0 0.14 0.15 0.15 88 1002.6
20210622020527 79 291 0.0 4.0 0.14 0.14 0.14 86 1002.3
20210622015528 80 294 2.0 8.0 0.05 0.05 0.05 79 1002.1
20210622014529 80 229 0.0 3.0 0.00 0.01 0.01 79 1001.6
20210622013527 80 194 1.0 4.0 0.00 0.01 0.01 78 1001.6
20210622012529 80 203 1.0 5.0 0.00 0.01 0.01 78 1001.6
20210622011529 81 231 0.0 2.0 0.00 0.01 0.01 77 1001.5
20210622010526 81 216 0.0 3.0 0.00 0.01 0.01 77 1001.3
20210622005529 81 239 1.0 3.0 0.00 0.01 0.01 76 1001.4
20210622004528 81 237 1.0 3.0 0.00 0.01 0.01 76 1001.1
20210622003529 82 239 1.0 4.0 0.00 0.01 0.01 75 1001.0
20210622002527 82 239 1.0 4.0 0.00 0.01 0.01 74 1001.0